Safe Harbor, Pennsylvania
Current Conditions -  °F | °C
As of 4:53 AM on Friday 19 Dec 2014 (Local Time) from KLNS Reporting Station
Overcast Overcast  
Wind Chill: 24°   Ceiling: 3500
Heat Index: 33°   Visibility: 10mi
Dew Point: 24°   Wind: 12mph
Humidity: 70%   Direction: 280°W
Pressure: 30.04"   Gusts: NA
Location:  39.9352°N, 76.3442°W
Report Text: KLNS 190953Z AUTO 28010KT 10SM OVC035 01/M04 A3004 RMK AO2 SLP177 T00061044
Loading
Personal Weather Stations






























Interactive Weather Map New forecast layout! Learn more

10-Day Weather Forecast

Advertisements
Track Severe Weather on mobile